Time;durP1;ratioP1;P1;durP2;ratioP2;P2;SDS_P1;SDS_P2;PMS_P1;PMS_P2;Temp;Humidity;BMP_temperature;BMP_pressure;BME280_temperature;BME280_humidity;BME280_pressure;Samples;Min_cycle;Max_cycle;Signal;HPM_P1;HPM_P2
2021/11/06 00:00:27;;;;;;;1.67;1.58;;;17.90;64.40;;;;;;5054571;28;20198;-62
2021/11/06 00:02:52;;;;;;;1.80;1.27;;;17.90;64.40;;;;;;5053804;28;20610;-61
2021/11/06 00:05:18;;;;;;;1.80;1.00;;;17.80;64.30;;;;;;5054477;28;20190;-60
2021/11/06 00:07:43;;;;;;;1.88;1.40;;;17.80;64.40;;;;;;5053927;28;20539;-61
2021/11/06 00:10:09;;;;;;;1.88;1.38;;;17.80;64.30;;;;;;5053757;28;20203;-61
2021/11/06 00:12:35;;;;;;;1.30;1.17;;;17.80;64.40;;;;;;5052701;28;20171;-61
2021/11/06 00:15:01;;;;;;;1.55;1.30;;;17.80;64.30;;;;;;5054448;28;20178;-61
2021/11/06 00:17:26;;;;;;;1.30;1.20;;;17.80;64.40;;;;;;5053408;28;20603;-61
2021/11/06 00:19:52;;;;;;;1.58;1.33;;;17.80;64.30;;;;;;5053869;28;20188;-62
2021/11/06 00:22:17;;;;;;;2.22;1.20;;;17.80;64.40;;;;;;5054134;28;20203;-62
2021/11/06 00:24:43;;;;;;;1.50;1.15;;;17.80;64.30;;;;;;5053164;28;20228;-63
2021/11/06 00:27:08;;;;;;;1.00;0.90;;;17.80;64.30;;;;;;5054186;28;20194;-63
2021/11/06 00:29:34;;;;;;;2.05;1.60;;;17.70;64.20;;;;;;5053895;28;20225;-63
2021/11/06 00:31:59;;;;;;;1.40;1.30;;;17.70;64.30;;;;;;5052502;28;20522;-63
2021/11/06 00:34:25;;;;;;;1.88;1.40;;;17.70;64.20;;;;;;5053957;28;20221;-62
2021/11/06 00:36:50;;;;;;;1.38;1.27;;;17.70;64.20;;;;;;5053052;28;20171;-63
2021/11/06 00:39:16;;;;;;;1.27;1.17;;;17.70;64.20;;;;;;5053753;28;20210;-61
2021/11/06 00:41:41;;;;;;;1.58;0.82;;;17.70;64.20;;;;;;5053903;28;20198;-62
2021/11/06 00:44:07;;;;;;;1.30;1.20;;;17.70;64.30;;;;;;5053075;28;20205;-61
2021/11/06 00:46:33;;;;;;;1.45;1.17;;;17.70;64.20;;;;;;5053711;28;20214;-61
2021/11/06 00:48:58;;;;;;;1.60;1.10;;;17.70;64.20;;;;;;5053832;28;20232;-61
2021/11/06 00:51:24;;;;;;;1.42;1.33;;;17.60;64.10;;;;;;5053078;28;20198;-61
2021/11/06 00:53:50;;;;;;;1.75;1.30;;;17.60;64.00;;;;;;5053300;28;20258;-62
2021/11/06 00:56:15;;;;;;;1.60;1.30;;;17.60;64.00;;;;;;5053887;28;20633;-63
2021/11/06 00:58:41;;;;;;;1.65;1.45;;;17.60;64.00;;;;;;5052749;28;20737;-63
2021/11/06 01:01:06;;;;;;;2.25;1.38;;;17.60;64.00;;;;;;5053526;28;20650;-63
2021/11/06 01:03:32;;;;;;;1.38;1.27;;;17.60;63.90;;;;;;5053177;28;20185;-62
2021/11/06 01:05:57;;;;;;;1.40;1.30;;;17.60;64.00;;;;;;5052633;28;20265;-62
2021/11/06 01:08:23;;;;;;;2.35;1.20;;;17.60;64.00;;;;;;5053370;28;20175;-61
2021/11/06 01:10:48;;;;;;;2.05;1.25;;;17.60;63.90;;;;;;5053059;28;20211;-62
2021/11/06 01:13:14;;;;;;;1.75;1.30;;;17.50;63.80;;;;;;5052732;28;20202;-62
2021/11/06 01:15:39;;;;;;;1.65;1.20;;;17.60;64.00;;;;;;5053108;28;20274;-62
2021/11/06 01:18:05;;;;;;;1.63;1.23;;;17.50;63.80;;;;;;5053022;28;20710;-63
2021/11/06 01:20:31;;;;;;;1.35;1.25;;;17.50;63.90;;;;;;5052328;28;20175;-62
2021/11/06 01:22:56;;;;;;;2.20;1.48;;;17.50;63.90;;;;;;5051982;28;20179;-62
2021/11/06 01:25:22;;;;;;;1.48;1.38;;;17.50;63.90;;;;;;5053071;28;20174;-62
2021/11/06 01:27:47;;;;;;;2.58;1.42;;;17.50;63.80;;;;;;5052277;28;20720;-63
2021/11/06 01:30:13;;;;;;;1.50;1.40;;;17.50;63.80;;;;;;5052943;28;20686;-62
2021/11/06 01:32:39;;;;;;;1.40;1.30;;;17.50;63.80;;;;;;5052465;28;20631;-63
2021/11/06 01:35:06;;;;;;;2.60;1.38;;;17.50;63.80;;;;;;5052238;28;20178;-63
2021/11/06 01:37:32;;;;;;;1.50;1.40;;;17.50;63.80;;;;;;5052316;28;20262;-62
2021/11/06 01:39:57;;;;;;;1.38;1.30;;;17.50;63.80;;;;;;5052898;28;20254;-62
2021/11/06 01:42:25;;;;;;;2.95;1.50;;;17.50;63.80;;;;;;5052329;28;20638;-62
2021/11/06 01:44:50;;;;;;;1.40;1.25;;;17.50;63.90;;;;;;5052222;28;20276;-62
2021/11/06 01:47:16;;;;;;;1.48;1.38;;;17.40;63.70;;;;;;5052080;28;20187;-61
2021/11/06 01:49:41;;;;;;;1.52;1.42;;;17.40;63.70;;;;;;5052208;28;20373;-61
2021/11/06 01:52:07;;;;;;;1.77;1.50;;;17.40;63.70;;;;;;5052598;28;20199;-61
2021/11/06 01:54:32;;;;;;;1.38;1.27;;;17.40;63.70;;;;;;5051761;28;20187;-62
2021/11/06 01:56:59;;;;;;;1.42;1.33;;;17.40;63.70;;;;;;5052385;28;20217;-62
2021/11/06 01:59:24;;;;;;;1.98;1.60;;;17.40;63.50;;;;;;5051223;28;20175;-62
2021/11/06 02:01:50;;;;;;;1.70;1.60;;;17.40;63.50;;;;;;5051549;28;20171;-62
2021/11/06 02:04:15;;;;;;;2.50;1.45;;;17.40;63.40;;;;;;5052066;28;20170;-62
2021/11/06 02:06:41;;;;;;;1.58;1.40;;;17.40;63.50;;;;;;5051841;28;20171;-61
2021/11/06 02:09:06;;;;;;;1.33;1.23;;;17.40;63.50;;;;;;5051681;28;20268;-61
2021/11/06 02:11:33;;;;;;;2.05;1.48;;;17.40;63.50;;;;;;5051813;28;20652;-61
2021/11/06 02:13:59;;;;;;;1.45;1.23;;;17.40;63.50;;;;;;5052164;28;20505;-61
2021/11/06 02:16:26;;;;;;;1.50;1.40;;;17.30;63.50;;;;;;5051344;28;20220;-61
2021/11/06 02:18:51;;;;;;;1.42;1.30;;;17.30;63.50;;;;;;5051719;28;20556;-62
2021/11/06 02:21:17;;;;;;;1.85;1.67;;;17.40;63.40;;;;;;5051960;28;20189;-61
2021/11/06 02:23:47;;;;;;;1.63;1.52;;;17.30;63.40;;;;;;5050938;28;20175;-62
2021/11/06 02:26:13;;;;;;;2.00;1.33;;;17.30;63.30;;;;;;5052203;28;20170;-62
2021/11/06 02:28:39;;;;;;;2.75;1.80;;;17.30;63.50;;;;;;5051739;28;20206;-62
2021/11/06 02:31:05;;;;;;;1.60;1.40;;;17.30;63.40;;;;;;5051152;28;20245;-63
2021/11/06 02:33:30;;;;;;;1.48;1.30;;;17.30;63.50;;;;;;5051764;28;20181;-62
2021/11/06 02:36:00;;;;;;;1.60;1.50;;;17.30;63.50;;;;;;5051824;28;20277;-63
2021/11/06 02:38:26;;;;;;;1.50;1.35;;;17.30;63.60;;;;;;5050404;28;20258;-63
2021/11/06 02:40:51;;;;;;;1.88;1.70;;;17.30;63.60;;;;;;5051801;28;20265;-63
2021/11/06 02:43:17;;;;;;;1.60;1.50;;;17.30;63.60;;;;;;5051669;28;20180;-62
2021/11/06 02:45:43;;;;;;;1.40;1.20;;;17.30;63.60;;;;;;5051360;28;20273;-62
2021/11/06 02:48:08;;;;;;;1.50;1.40;;;17.30;63.50;;;;;;5051775;28;20205;-62
2021/11/06 02:50:34;;;;;;;1.52;1.30;;;17.30;63.60;;;;;;5051020;28;20291;-62
2021/11/06 02:52:59;;;;;;;1.80;1.45;;;17.30;63.50;;;;;;5051950;28;20217;-63
2021/11/06 02:55:25;;;;;;;1.63;1.40;;;17.30;63.60;;;;;;5054780;28;20183;-65
2021/11/06 02:57:50;;;;;;;2.63;1.80;;;17.30;63.60;;;;;;5057499;28;20167;-64
2021/11/06 03:00:16;;;;;;;1.80;1.67;;;17.20;63.40;;;;;;5058362;28;20179;-63
2021/11/06 03:02:42;;;;;;;1.50;1.40;;;17.20;63.50;;;;;;5057975;28;20249;-63
2021/11/06 03:05:08;;;;;;;1.55;1.42;;;17.20;63.50;;;;;;5057416;28;20596;-62
2021/11/06 03:07:34;;;;;;;1.52;1.42;;;17.20;63.60;;;;;;5058109;28;20171;-61
2021/11/06 03:09:59;;;;;;;1.45;1.33;;;17.20;63.50;;;;;;5058232;28;20221;-61
2021/11/06 03:12:25;;;;;;;1.50;1.40;;;17.20;63.50;;;;;;5057548;28;20198;-62
2021/11/06 03:14:51;;;;;;;2.17;1.42;;;17.20;63.60;;;;;;5057908;28;20230;-62
2021/11/06 03:17:19;;;;;;;1.83;1.67;;;17.20;63.50;;;;;;5058221;28;20634;-61
2021/11/06 03:19:44;;;;;;;1.73;1.60;;;17.20;63.50;;;;;;5056156;28;20175;-62
2021/11/06 03:22:10;;;;;;;2.20;1.70;;;17.20;63.50;;;;;;5057968;28;20181;-61
2021/11/06 03:24:36;;;;;;;1.75;1.42;;;17.20;63.40;;;;;;5058287;28;20198;-62
2021/11/06 03:27:02;;;;;;;2.13;1.80;;;17.20;63.50;;;;;;5057518;28;20173;-63
2021/11/06 03:29:28;;;;;;;2.15;1.85;;;17.20;63.40;;;;;;5058059;28;20217;-63
2021/11/06 03:31:53;;;;;;;2.20;1.80;;;17.20;63.50;;;;;;5057901;28;20182;-63
2021/11/06 03:34:19;;;;;;;2.33;1.90;;;17.10;63.40;;;;;;5057395;28;20175;-63
2021/11/06 03:36:44;;;;;;;2.17;1.83;;;17.10;63.40;;;;;;5057724;28;20175;-63
2021/11/06 03:39:10;;;;;;;2.90;2.20;;;17.10;63.30;;;;;;5058114;28;20541;-63
2021/11/06 03:41:36;;;;;;;2.17;1.95;;;17.20;63.50;;;;;;5056961;28;20177;-62
2021/11/06 03:44:01;;;;;;;2.00;1.80;;;17.10;63.50;;;;;;5057880;28;20174;-62
2021/11/06 03:46:27;;;;;;;2.00;1.70;;;17.10;63.80;;;;;;5057723;28;20191;-62
2021/11/06 03:48:53;;;;;;;3.70;2.00;;;17.10;63.30;;;;;;5056756;28;20177;-62
2021/11/06 03:51:19;;;;;;;3.78;2.15;;;17.10;64.20;;;;;;5057814;28;20187;-62
2021/11/06 03:53:45;;;;;;;1.92;1.77;;;17.10;63.40;;;;;;5057004;28;20182;-63
2021/11/06 03:56:11;;;;;;;2.20;2.00;;;17.10;63.40;;;;;;5057667;28;20561;-64
2021/11/06 03:58:37;;;;;;;3.33;2.15;;;17.10;63.30;;;;;;5057523;28;20211;-63
2021/11/06 04:01:03;;;;;;;2.75;2.28;;;17.10;63.30;;;;;;5056981;28;20185;-62
2021/11/06 04:03:29;;;;;;;2.70;2.25;;;17.10;63.30;;;;;;5057385;28;20525;-61
2021/11/06 04:05:54;;;;;;;2.40;2.20;;;17.10;63.40;;;;;;5057523;28;20194;-61
2021/11/06 04:08:20;;;;;;;3.53;2.47;;;17.00;63.30;;;;;;5052998;28;20203;-61
2021/11/06 04:10:46;;;;;;;2.28;1.90;;;17.10;63.20;;;;;;5054450;28;20246;-61
2021/11/06 04:13:13;;;;;;;2.60;2.33;;;17.10;63.30;;;;;;5054742;28;20653;-62
2021/11/06 04:15:39;;;;;;;3.33;2.35;;;17.00;63.10;;;;;;5053639;28;20278;-62
2021/11/06 04:18:05;;;;;;;2.75;2.08;;;17.00;63.10;;;;;;5054714;28;20199;-62
2021/11/06 04:20:30;;;;;;;2.90;2.60;;;17.00;63.10;;;;;;5054407;28;20218;-63
2021/11/06 04:22:56;;;;;;;2.88;2.30;;;17.00;62.90;;;;;;5053867;28;20342;-63
2021/11/06 04:25:21;;;;;;;2.30;2.00;;;17.00;63.90;;;;;;5054463;28;20229;-62
2021/11/06 04:27:47;;;;;;;2.53;2.33;;;17.00;63.10;;;;;;5054088;28;20178;-63
2021/11/06 04:30:13;;;;;;;3.08;2.30;;;17.00;63.00;;;;;;5053492;28;20219;-63
2021/11/06 04:32:38;;;;;;;2.97;2.10;;;17.00;62.90;;;;;;5054175;28;20645;-62
2021/11/06 04:35:04;;;;;;;2.78;2.30;;;17.00;62.90;;;;;;5054466;28;20270;-62
2021/11/06 04:37:29;;;;;;;4.25;2.63;;;17.00;62.90;;;;;;5053387;28;20179;-62
2021/11/06 04:39:55;;;;;;;4.22;2.58;;;17.00;62.90;;;;;;5054098;28;20186;-62
2021/11/06 04:42:20;;;;;;;2.33;2.13;;;17.00;62.80;;;;;;5054268;28;20163;-62
2021/11/06 04:44:46;;;;;;;3.35;2.38;;;17.00;62.80;;;;;;5052770;28;20230;-61
2021/11/06 04:47:12;;;;;;;3.60;2.60;;;17.00;62.80;;;;;;5053885;28;20660;-62
2021/11/06 04:49:37;;;;;;;2.67;2.30;;;17.00;62.80;;;;;;5053981;28;20287;-61
2021/11/06 04:52:04;;;;;;;2.63;2.42;;;16.90;62.70;;;;;;5053299;28;20171;-62
2021/11/06 04:54:29;;;;;;;2.95;2.38;;;16.90;62.90;;;;;;5053994;28;20659;-62
2021/11/06 04:56:55;;;;;;;3.03;2.70;;;16.90;62.70;;;;;;5053332;28;20210;-63
2021/11/06 04:59:20;;;;;;;3.45;2.40;;;16.90;62.90;;;;;;5053438;28;20271;-63
2021/11/06 05:01:46;;;;;;;4.32;2.60;;;16.90;62.90;;;;;;5053222;28;20171;-63
2021/11/06 05:04:12;;;;;;;4.38;2.80;;;16.90;63.10;;;;;;5053020;28;20171;-62
2021/11/06 05:06:37;;;;;;;2.50;2.30;;;16.90;62.80;;;;;;5053523;28;20175;-61
2021/11/06 05:09:03;;;;;;;3.53;2.53;;;16.90;62.90;;;;;;5053893;28;20274;-61
2021/11/06 05:11:28;;;;;;;2.35;2.15;;;16.90;63.00;;;;;;5052708;28;20195;-61
2021/11/06 05:13:54;;;;;;;3.13;2.70;;;16.90;62.90;;;;;;5053533;28;20218;-62
2021/11/06 05:16:19;;;;;;;2.50;2.30;;;16.90;62.90;;;;;;5053133;28;20199;-62
2021/11/06 05:18:45;;;;;;;2.60;2.30;;;16.90;63.00;;;;;;5052168;28;20214;-62
2021/11/06 05:21:11;;;;;;;3.53;2.80;;;16.90;62.90;;;;;;5053295;28;20182;-62
2021/11/06 05:23:36;;;;;;;3.10;2.65;;;16.90;62.90;;;;;;5052855;28;20183;-62
2021/11/06 05:26:02;;;;;;;3.15;2.72;;;16.80;62.70;;;;;;5052487;28;20175;-63
2021/11/06 05:28:27;;;;;;;2.78;2.17;;;16.80;62.90;;;;;;5053119;28;20613;-62
2021/11/06 05:30:53;;;;;;;3.67;2.88;;;16.90;63.10;;;;;;5052750;28;20207;-62
2021/11/06 05:33:18;;;;;;;3.45;2.42;;;16.90;62.90;;;;;;5052575;28;20167;-63
2021/11/06 05:35:44;;;;;;;3.88;2.63;;;16.90;62.90;;;;;;5052542;28;20197;-63
2021/11/06 05:38:12;;;;;;;3.80;2.53;;;16.80;62.80;;;;;;5052889;28;20670;-63
2021/11/06 05:40:38;;;;;;;3.03;2.42;;;16.80;62.90;;;;;;5051794;28;20718;-61
2021/11/06 05:43:03;;;;;;;4.15;2.80;;;16.90;63.00;;;;;;5052697;28;20258;-61
2021/11/06 05:45:29;;;;;;;4.13;2.65;;;16.80;62.80;;;;;;5052007;28;20584;-60
2021/11/06 05:47:55;;;;;;;2.95;2.65;;;16.80;62.80;;;;;;5052089;28;20646;-60
2021/11/06 05:50:23;;;;;;;3.10;2.78;;;16.80;62.70;;;;;;5052564;28;20219;-60
2021/11/06 05:52:48;;;;;;;2.88;2.63;;;16.90;62.80;;;;;;5052350;28;20224;-61
2021/11/06 05:55:15;;;;;;;4.30;2.70;;;16.80;62.80;;;;;;5051919;28;20171;-62
2021/11/06 05:57:41;;;;;;;4.35;2.92;;;16.80;62.80;;;;;;5052063;28;20634;-63
2021/11/06 06:00:09;;;;;;;2.90;2.60;;;16.80;62.60;;;;;;5052338;28;20194;-63
2021/11/06 06:02:35;;;;;;;4.07;2.58;;;16.80;62.80;;;;;;5051470;28;20175;-63
2021/11/06 06:05:00;;;;;;;2.97;2.75;;;16.70;62.80;;;;;;5052389;28;20179;-61
2021/11/06 06:07:26;;;;;;;2.53;2.30;;;16.80;63.60;;;;;;5051734;28;20677;-60
2021/11/06 06:09:52;;;;;;;4.00;2.80;;;16.70;62.80;;;;;;5051966;28;20210;-61
2021/11/06 06:12:17;;;;;;;3.72;3.03;;;16.70;62.80;;;;;;5052192;28;20175;-62
2021/11/06 06:14:43;;;;;;;3.63;2.53;;;16.80;62.80;;;;;;5051111;28;20524;-62
2021/11/06 06:17:08;;;;;;;4.93;2.85;;;16.70;62.80;;;;;;5052348;28;20614;-61
2021/11/06 06:19:34;;;;;;;3.00;2.70;;;16.70;62.90;;;;;;5052003;28;20178;-61
2021/11/06 06:21:59;;;;;;;3.70;2.83;;;16.70;62.80;;;;;;5051460;28;20194;-62
2021/11/06 06:24:25;;;;;;;4.50;2.80;;;16.80;62.90;;;;;;5052149;28;20221;-62
2021/11/06 06:26:50;;;;;;;3.53;2.85;;;16.70;62.80;;;;;;5051816;28;20241;-62
2021/11/06 06:29:16;;;;;;;3.25;2.80;;;16.70;62.60;;;;;;5050938;28;20230;-62
2021/11/06 06:31:41;;;;;;;4.40;2.55;;;16.70;62.90;;;;;;5051483;28;20171;-63
2021/11/06 06:34:07;;;;;;;4.13;3.00;;;16.70;62.90;;;;;;5051911;28;20533;-63
2021/11/06 06:36:32;;;;;;;2.95;2.22;;;16.70;62.90;;;;;;5050971;28;20171;-63
2021/11/06 06:38:58;;;;;;;3.10;2.75;;;16.70;62.90;;;;;;5052009;28;20171;-62
2021/11/06 06:41:23;;;;;;;2.90;2.60;;;16.70;62.90;;;;;;5052071;28;20229;-62
2021/11/06 06:43:52;;;;;;;4.03;3.13;;;16.70;62.90;;;;;;5050825;28;20178;-62
2021/11/06 06:46:18;;;;;;;3.10;2.75;;;16.60;62.80;;;;;;5051227;28;20230;-60
2021/11/06 06:48:44;;;;;;;3.25;2.90;;;16.70;62.90;;;;;;5051628;28;20179;-60
2021/11/06 06:51:09;;;;;;;3.42;2.53;;;16.70;62.90;;;;;;5051197;28;20210;-60
2021/11/06 06:53:34;;;;;;;3.42;2.58;;;16.60;62.80;;;;;;5051502;28;20171;-60
2021/11/06 06:56:00;;;;;;;3.20;2.90;;;16.70;62.90;;;;;;5051618;28;20629;-61
2021/11/06 06:58:26;;;;;;;3.25;2.90;;;16.60;62.80;;;;;;5051087;28;20182;-64
2021/11/06 07:00:51;;;;;;;3.95;2.90;;;16.60;63.00;;;;;;5051608;28;20206;-62
2021/11/06 07:03:17;;;;;;;3.30;2.50;;;16.70;62.90;;;;;;5051602;28;20209;-62
2021/11/06 07:05:43;;;;;;;3.30;2.55;;;16.70;62.90;;;;;;5050756;28;20590;-60
2021/11/06 07:08:08;;;;;;;2.97;2.63;;;16.80;63.30;;;;;;5051564;28;20175;-61
2021/11/06 07:10:34;;;;;;;3.15;2.88;;;16.90;63.20;;;;;;5050580;28;20206;-60
2021/11/06 07:13:00;;;;;;;2.97;2.15;;;16.90;62.90;;;;;;5051528;28;20167;-61
2021/11/06 07:15:25;;;;;;;2.78;2.35;;;17.00;62.70;;;;;;5051690;28;20194;-62
2021/11/06 07:17:51;;;;;;;3.03;2.67;;;17.10;62.50;;;;;;5050658;28;20182;-62
2021/11/06 07:20:19;;;;;;;2.95;2.75;;;17.20;62.40;;;;;;5051659;28;20210;-62
2021/11/06 07:22:45;;;;;;;2.72;2.53;;;17.50;62.00;;;;;;5051134;28;20512;-62
2021/11/06 07:25:11;;;;;;;2.70;2.50;;;17.70;61.50;;;;;;5050800;28;20175;-62
2021/11/06 07:27:36;;;;;;;2.55;2.35;;;17.90;61.00;;;;;;5051131;28;20168;-63
2021/11/06 07:30:03;;;;;;;2.80;2.42;;;18.10;60.60;;;;;;5051472;28;20218;-63
2021/11/06 07:32:28;;;;;;;3.65;2.60;;;18.20;60.40;;;;;;5050667;28;20179;-66
2021/11/06 07:34:54;;;;;;;2.30;1.98;;;18.40;60.10;;;;;;5051279;28;20178;-64
2021/11/06 07:37:19;;;;;;;2.80;2.50;;;18.50;59.90;;;;;;5050969;28;20186;-65
2021/11/06 07:39:45;;;;;;;2.50;2.10;;;18.60;59.50;;;;;;5050117;28;20528;-62
2021/11/06 07:42:10;;;;;;;4.30;2.35;;;18.70;59.40;;;;;;5053376;28;20652;-61
2021/11/06 07:44:39;;;;;;;4.68;2.53;;;18.70;59.60;;;;;;5054723;28;20238;-62
2021/11/06 07:47:04;;;;;;;2.67;2.25;;;18.70;59.70;;;;;;5054216;28;20536;-62
2021/11/06 07:49:30;;;;;;;3.03;1.98;;;18.80;59.70;;;;;;5054531;28;20195;-61
2021/11/06 07:51:59;;;;;;;3.00;2.30;;;18.80;59.70;;;;;;5054753;28;20482;-62
2021/11/06 07:54:26;;;;;;;4.22;2.20;;;18.80;59.80;;;;;;5053904;28;20237;-62
2021/11/06 07:56:52;;;;;;;5.00;2.55;;;18.90;59.90;;;;;;5054688;28;20266;-62
2021/11/06 07:59:17;;;;;;;4.35;2.35;;;18.90;59.90;;;;;;5054942;28;20586;-63
2021/11/06 08:01:42;;;;;;;3.58;2.13;;;18.90;59.90;;;;;;5053316;28;20179;-62
2021/11/06 08:04:08;;;;;;;4.57;2.25;;;18.90;59.90;;;;;;5054446;28;20630;-61
2021/11/06 08:06:35;;;;;;;2.28;1.75;;;18.90;59.90;;;;;;5054254;28;20191;-61
2021/11/06 08:09:01;;;;;;;2.70;2.05;;;18.90;59.90;;;;;;5053699;28;20226;-60
2021/11/06 08:11:26;;;;;;;3.05;2.00;;;18.90;59.90;;;;;;5054806;28;20183;-61
2021/11/06 08:13:52;;;;;;;3.70;2.50;;;18.90;60.00;;;;;;5053699;28;20175;-62
2021/11/06 08:16:18;;;;;;;3.53;2.40;;;18.80;60.20;;;;;;5054506;28;20228;-61
2021/11/06 08:18:44;;;;;;;4.15;2.53;;;18.80;60.40;;;;;;5054187;28;20183;-63
2021/11/06 08:21:10;;;;;;;3.10;2.13;;;18.60;60.60;;;;;;5053604;28;20179;-61
2021/11/06 08:23:36;;;;;;;2.47;2.20;;;18.60;60.90;;;;;;5054065;28;20179;-61
2021/11/06 08:26:01;;;;;;;2.88;2.20;;;18.50;61.20;;;;;;5054136;28;20278;-61
2021/11/06 08:28:27;;;;;;;2.88;2.55;;;18.40;61.10;;;;;;5053870;28;20179;-62
2021/11/06 08:30:52;;;;;;;2.42;1.85;;;18.40;61.20;;;;;;5054041;28;20660;-62
2021/11/06 08:33:18;;;;;;;3.33;2.58;;;18.40;61.20;;;;;;5053982;28;20179;-69
2021/11/06 08:35:43;;;;;;;3.75;2.33;;;18.40;61.20;;;;;;5052994;28;20716;-69
2021/11/06 08:38:11;;;;;;;5.50;2.22;;;18.40;61.20;;;;;;5053615;28;20513;-65
2021/11/06 08:40:37;;;;;;;5.15;2.40;;;18.40;61.40;;;;;;5059670;28;20193;-64
2021/11/06 08:43:03;;;;;;;3.00;2.35;;;18.30;61.50;;;;;;5073134;28;20178;-64
2021/11/06 08:45:28;;;;;;;4.72;1.90;;;18.30;61.70;;;;;;5073277;28;20222;-63
2021/11/06 08:47:54;;;;;;;3.28;2.28;;;18.20;61.80;;;;;;5073798;28;20166;-63
2021/11/06 08:50:21;;;;;;;3.47;2.10;;;18.20;61.90;;;;;;5072846;28;20671;-64
2021/11/06 08:52:48;;;;;;;3.08;2.45;;;18.20;62.00;;;;;;5072577;28;20174;-66
2021/11/06 08:55:14;;;;;;;2.20;2.00;;;18.30;61.90;;;;;;5073523;28;20239;-65
2021/11/06 08:57:39;;;;;;;2.60;1.85;;;18.40;61.80;;;;;;5072460;28;20182;-65
2021/11/06 09:00:11;;;;;;;3.72;2.08;;;18.40;61.70;;;;;;5073459;28;20178;-66
2021/11/06 09:02:36;;;;;;;3.40;1.95;;;18.30;61.80;;;;;;5073290;28;20245;-63
2021/11/06 09:05:03;;;;;;;2.28;1.80;;;18.30;61.80;;;;;;5072457;28;20626;-63
2021/11/06 09:07:32;;;;;;;3.08;2.65;;;18.30;61.90;;;;;;5072900;28;20220;-63
2021/11/06 09:09:58;;;;;;;3.20;1.67;;;18.30;62.40;;;;;;5073429;28;20210;-62
2021/11/06 09:12:23;;;;;;;2.22;2.03;;;18.30;62.10;;;;;;5072749;28;20235;-62
2021/11/06 09:14:49;;;;;;;3.38;1.80;;;18.30;62.30;;;;;;5072814;28;20174;-62
2021/11/06 09:17:15;;;;;;;2.83;1.98;;;18.20;62.30;;;;;;5072459;28;20542;-62
2021/11/06 09:19:40;;;;;;;2.28;1.88;;;18.20;62.40;;;;;;5072989;28;20178;-62
2021/11/06 09:22:06;;;;;;;2.97;2.03;;;18.30;63.10;;;;;;5072940;28;20633;-63
2021/11/06 09:24:31;;;;;;;2.97;1.98;;;18.30;62.20;;;;;;5072237;28;20220;-61
2021/11/06 09:26:57;;;;;;;3.33;1.92;;;18.40;62.10;;;;;;5073321;28;20171;-65
2021/11/06 09:29:22;;;;;;;2.60;2.00;;;18.30;62.10;;;;;;5072832;28;20633;-65
2021/11/06 09:31:48;;;;;;;2.15;1.80;;;18.30;62.30;;;;;;5071799;28;20557;-66
2021/11/06 09:34:13;;;;;;;3.25;1.80;;;18.30;62.40;;;;;;5072926;28;20163;-65
2021/11/06 09:36:39;;;;;;;3.95;1.80;;;18.20;62.50;;;;;;5062183;28;20183;-64
2021/11/06 09:39:06;;;;;;;2.50;1.95;;;18.20;62.50;;;;;;5066586;28;20185;-65
2021/11/06 09:41:31;;;;;;;3.10;1.63;;;18.20;62.40;;;;;;5055639;28;20183;-64
2021/11/06 09:43:57;;;;;;;2.25;1.90;;;18.20;62.40;;;;;;5054344;28;20186;-64
2021/11/06 09:46:22;;;;;;;2.33;1.73;;;18.10;62.50;;;;;;5072008;28;20613;-63
2021/11/06 09:48:48;;;;;;;3.30;1.80;;;18.10;62.50;;;;;;5071236;28;20683;-63
2021/11/06 09:51:15;;;;;;;2.25;1.80;;;18.10;62.50;;;;;;5072324;28;20206;-63
2021/11/06 09:53:43;;;;;;;2.42;1.73;;;18.00;62.50;;;;;;5059960;28;20172;-64
2021/11/06 09:56:09;;;;;;;2.72;1.90;;;18.00;62.40;;;;;;5052400;28;20638;-63
2021/11/06 09:58:35;;;;;;;3.15;1.80;;;18.00;62.50;;;;;;5052003;28;20172;-64
2021/11/06 10:01:00;;;;;;;2.40;1.95;;;18.00;62.60;;;;;;5051710;28;20271;-65
2021/11/06 10:03:26;;;;;;;2.42;1.70;;;17.90;62.50;;;;;;5052047;28;20197;-64
2021/11/06 10:06:03;;;;;;;5.65;1.90;;;17.90;62.70;;;;;;5051100;28;20175;-65
2021/11/06 10:08:35;;;;;;;3.17;1.80;;;17.90;62.80;;;;;;5051761;28;20209;-63
2021/11/06 10:11:09;;;;;;;2.78;1.50;;;17.90;62.70;;;;;;5065948;28;20226;-63
2021/11/06 10:13:54;;;;;;;2.88;1.73;;;18.00;62.60;;;;;;5071273;28;20171;-63
2021/11/06 10:16:31;;;;;;;2.55;1.77;;;18.10;62.50;;;;;;5070804;28;20269;-65
2021/11/06 10:19:07;;;;;;;2.58;1.60;;;18.20;62.20;;;;;;5072001;28;20193;-63
2021/11/06 10:21:33;;;;;;;2.55;1.63;;;18.30;62.30;;;;;;5071248;28;20264;-63
2021/11/06 10:23:58;;;;;;;2.40;1.90;;;18.30;62.20;;;;;;5071810;28;20547;-64
2021/11/06 10:26:24;;;;;;;2.00;1.80;;;18.40;62.10;;;;;;5072075;28;20598;-64
2021/11/06 10:29:02;;;;;;;1.80;1.60;;;18.50;61.90;;;;;;5070827;28;20185;-65
2021/11/06 10:31:27;;;;;;;3.17;1.67;;;18.60;61.80;;;;;;5072235;28;20198;-65
2021/11/06 10:33:53;;;;;;;2.35;1.85;;;18.80;61.60;;;;;;5071683;28;20176;-66
2021/11/06 10:36:23;;;;;;;3.05;1.98;;;18.80;61.40;;;;;;5071139;28;20569;-64
2021/11/06 10:39:10;;;;;;;1.70;1.60;;;18.90;61.20;;;;;;5071680;28;20189;-66
2021/11/06 10:41:39;;;;;;;3.08;1.67;;;19.10;60.70;;;;;;5071195;28;20178;-62
2021/11/06 10:44:05;;;;;;;2.60;1.60;;;19.30;60.20;;;;;;5066733;28;20199;-64
2021/11/06 10:46:30;;;;;;;3.20;1.60;;;19.40;59.90;;;;;;5050203;28;20186;-65
2021/11/06 10:48:57;;;;;;;3.60;1.95;;;19.50;59.60;;;;;;5051193;28;20660;-64
2021/11/06 10:51:22;;;;;;;2.58;1.70;;;19.70;59.40;;;;;;5051961;28;20284;-65
2021/11/06 10:53:50;;;;;;;2.55;1.50;;;19.70;59.20;;;;;;5051613;28;20171;-65
2021/11/06 10:56:24;;;;;;;1.95;1.58;;;19.80;59.10;;;;;;5051417;28;20170;-67
2021/11/06 10:58:51;;;;;;;4.13;1.98;;;19.80;59.10;;;;;;5051211;28;20254;-67
2021/11/06 11:01:20;;;;;;;3.83;1.52;;;19.80;59.20;;;;;;5051775;28;20179;-66
2021/11/06 11:03:47;;;;;;;2.15;1.67;;;19.80;59.10;;;;;;5050666;28;20179;-66
2021/11/06 11:06:28;;;;;;;2.60;1.85;;;19.80;59.20;;;;;;5051802;28;20175;-66
2021/11/06 11:08:55;;;;;;;3.42;1.30;;;19.70;59.30;;;;;;5051891;28;20167;-66
2021/11/06 11:11:24;;;;;;;1.55;1.40;;;19.60;59.60;;;;;;5050840;28;20639;-65
2021/11/06 11:13:57;;;;;;;2.30;1.75;;;19.60;59.90;;;;;;5051354;28;20236;-65
2021/11/06 11:16:23;;;;;;;2.53;1.60;;;19.50;60.00;;;;;;5052544;28;20203;-65
2021/11/06 11:18:50;;;;;;;2.08;1.58;;;19.40;60.20;;;;;;5054431;28;20581;-65
2021/11/06 11:21:20;;;;;;;2.13;1.55;;;19.30;60.30;;;;;;5055475;28;20274;-64
2021/11/06 11:23:54;;;;;;;1.83;1.65;;;19.30;60.60;;;;;;5054778;28;20511;-64
2021/11/06 11:26:28;;;;;;;3.80;1.50;;;19.20;60.80;;;;;;5055710;28;20179;-65
2021/11/06 11:28:54;;;;;;;3.58;2.08;;;19.10;60.80;;;;;;5055719;28;20182;-67
2021/11/06 11:31:23;;;;;;;3.00;1.50;;;19.10;61.00;;;;;;5054234;28;20202;-65
2021/11/06 11:33:49;;;;;;;4.15;1.50;;;19.10;61.10;;;;;;5055045;28;20179;-66
2021/11/06 11:36:20;;;;;;;2.65;1.40;;;19.00;61.30;;;;;;5055202;28;20182;-65
2021/11/06 11:38:46;;;;;;;4.32;1.73;;;18.90;61.40;;;;;;5054283;28;20183;-65
2021/11/06 11:41:53;;;;;;;3.53;1.70;;;18.90;61.50;;;;;;5054983;28;20179;-66
2021/11/06 11:45:02;;;;;;;4.35;1.65;;;18.90;61.60;;;;;;5061780;28;20220;-66
2021/11/06 11:47:30;;;;;;;2.08;1.50;;;18.90;61.40;;;;;;5059818;28;20186;-65
2021/11/06 11:49:58;;;;;;;3.88;1.75;;;18.90;61.30;;;;;;5073453;28;20205;-65
2021/11/06 11:52:34;;;;;;;4.10;1.98;;;18.90;61.30;;;;;;5056693;28;20171;-65
2021/11/06 11:55:09;;;;;;;3.47;1.92;;;18.90;61.40;;;;;;5074821;28;20231;-69
2021/11/06 11:57:39;;;;;;;4.18;1.73;;;18.80;61.60;;;;;;5074403;28;20239;-66
2021/11/06 12:00:34;;;;;;;2.80;1.65;;;18.80;61.70;;;;;;5074069;28;20190;-63
2021/11/06 12:03:00;;;;;;;4.40;1.65;;;18.70;61.70;;;;;;5072273;28;20186;-65
2021/11/06 12:05:26;;;;;;;9.55;2.00;;;18.70;62.60;;;;;;5074765;28;20232;-65
2021/11/06 12:08:10;;;;;;;6.43;2.28;;;18.70;61.80;;;;;;5073658;28;20186;-64
2021/11/06 12:10:55;;;;;;;2.53;1.52;;;18.80;61.70;;;;;;5073918;28;20288;-64
2021/11/06 12:13:30;;;;;;;6.47;2.15;;;18.90;61.50;;;;;;5073901;28;20283;-64
2021/11/06 12:16:04;;;;;;;4.20;1.73;;;18.90;61.40;;;;;;5074676;28;20193;-64
2021/11/06 12:18:32;;;;;;;2.90;1.73;;;18.90;61.40;;;;;;5074004;28;20181;-63
2021/11/06 12:21:20;;;;;;;3.75;1.60;;;18.90;61.50;;;;;;5073497;28;20181;-64
2021/11/06 12:23:50;;;;;;;3.90;1.70;;;18.90;61.60;;;;;;5074037;28;20190;-64
2021/11/06 12:26:27;;;;;;;6.90;1.65;;;18.80;61.40;;;;;;5074505;28;20177;-63
2021/11/06 12:29:02;;;;;;;2.95;1.55;;;18.80;61.70;;;;;;5072065;28;20197;-65
2021/11/06 12:31:37;;;;;;;3.85;1.50;;;18.70;61.60;;;;;;5073908;28;20240;-65
2021/11/06 12:34:02;;;;;;;4.72;1.83;;;18.70;61.60;;;;;;5074165;28;20174;-65
2021/11/06 12:36:29;;;;;;;2.00;1.27;;;18.80;61.40;;;;;;5073496;28;20684;-65
2021/11/06 12:38:56;;;;;;;6.90;1.90;;;18.80;61.20;;;;;;5074020;28;20175;-65
2021/11/06 12:41:37;;;;;;;3.25;1.60;;;18.80;61.20;;;;;;5073477;28;20211;-64
2021/11/06 12:44:04;;;;;;;2.95;1.70;;;18.90;61.30;;;;;;5068747;28;20622;-63
2021/11/06 12:46:31;;;;;;;2.03;1.58;;;18.80;61.20;;;;;;5053875;28;20186;-63